Time;durP1;ratioP1;P1;durP2;ratioP2;P2;SDS_P1;SDS_P2;PMS_P1;PMS_P2;Temp;Humidity;BMP_temperature;BMP_pressure;BME280_temperature;BME280_humidity;BME280_pressure;Samples;Min_cycle;Max_cycle;Signal;HPM_P1;HPM_P2
2022/11/21 00:01:17;;;;;;;342.63;328.33;;;7.10;99.90;;;;;;4978356;28;20825;-83
2022/11/21 00:03:44;;;;;;;312.97;300.37;;;7.10;99.90;;;;;;4978332;28;20446;-82
2022/11/21 00:06:10;;;;;;;326.47;312.40;;;7.20;99.90;;;;;;4978420;28;20455;-84
2022/11/21 00:08:37;;;;;;;329.83;316.40;;;7.10;99.90;;;;;;4978044;28;20542;-83
2022/11/21 00:11:05;;;;;;;316.63;303.57;;;7.00;99.90;;;;;;4978193;28;20455;-82
2022/11/21 00:13:32;;;;;;;312.07;300.17;;;7.00;99.90;;;;;;4978081;28;20458;-83
2022/11/21 00:16:03;;;;;;;322.57;309.97;;;7.00;99.90;;;;;;4978862;28;20466;-84
2022/11/21 00:18:30;;;;;;;319.93;307.23;;;6.90;99.90;;;;;;4978002;28;20475;-84
2022/11/21 00:20:57;;;;;;;261.70;250.50;;;6.80;99.90;;;;;;4978148;28;20474;-83
2022/11/21 00:23:27;;;;;;;247.13;236.83;;;7.00;99.90;;;;;;4978083;28;20455;-84
2022/11/21 00:25:53;;;;;;;254.40;244.40;;;7.10;99.90;;;;;;4977612;28;20857;-82
2022/11/21 00:28:21;;;;;;;275.33;263.73;;;6.90;99.90;;;;;;4977069;28;20494;-82
2022/11/21 00:30:48;;;;;;;256.53;245.93;;;6.80;99.90;;;;;;4977478;28;20455;-83
2022/11/21 00:33:15;;;;;;;232.43;223.10;;;6.90;99.90;;;;;;4978114;28;20467;-84
2022/11/21 00:35:41;;;;;;;234.83;224.83;;;6.90;99.90;;;;;;4977998;28;20462;-84
2022/11/21 00:38:08;;;;;;;235.60;225.90;;;6.80;99.90;;;;;;4978219;28;20482;-83
2022/11/21 00:40:35;;;;;;;255.83;244.57;;;7.00;99.90;;;;;;4977718;28;20478;-83
2022/11/21 00:43:01;;;;;;;273.67;261.60;;;6.90;99.90;;;;;;4977921;28;20447;-83
2022/11/21 00:45:30;;;;;;;251.93;240.33;;;7.00;99.90;;;;;;4978344;28;20459;-83
2022/11/21 00:47:56;;;;;;;263.57;251.20;;;6.80;99.90;;;;;;4977023;28;20471;-84
2022/11/21 00:50:23;;;;;;;307.63;294.97;;;6.90;99.90;;;;;;4977836;28;20451;-83
2022/11/21 00:52:54;;;;;;;312.83;299.83;;;6.80;99.90;;;;;;4977866;28;20836;-83
2022/11/21 00:55:20;;;;;;;310.60;298.17;;;6.90;99.90;;;;;;4976355;28;20545;-84
2022/11/21 00:57:47;;;;;;;337.53;323.30;;;6.80;99.90;;;;;;4976482;28;20459;-83
2022/11/21 01:00:15;;;;;;;334.07;320.37;;;6.80;99.90;;;;;;4977011;28;20478;-82
2022/11/21 01:02:43;;;;;;;341.47;327.07;;;6.80;99.90;;;;;;4976944;28;20458;-85
2022/11/21 01:05:10;;;;;;;373.90;358.43;;;6.60;99.90;;;;;;4977631;28;20455;-84
2022/11/21 01:07:37;;;;;;;369.47;354.27;;;6.80;99.90;;;;;;4977029;28;20461;-82
2022/11/21 01:10:04;;;;;;;380.60;364.07;;;6.60;99.90;;;;;;4976974;28;20867;-83
2022/11/21 01:12:31;;;;;;;375.13;359.27;;;6.70;99.90;;;;;;4976795;28;20458;-83
2022/11/21 01:14:58;;;;;;;360.93;346.33;;;6.70;99.90;;;;;;4976424;28;21025;-84
2022/11/21 01:17:24;;;;;;;372.07;356.73;;;6.70;99.90;;;;;;4977366;28;20466;-83
2022/11/21 01:19:52;;;;;;;387.80;372.00;;;6.70;99.90;;;;;;4977290;28;20845;-83
2022/11/21 01:22:19;;;;;;;385.00;368.60;;;6.70;99.90;;;;;;4976164;28;20446;-82
2022/11/21 01:24:46;;;;;;;382.10;366.17;;;6.70;99.90;;;;;;4976826;28;20451;-82
2022/11/21 01:27:13;;;;;;;377.17;361.37;;;6.70;99.90;;;;;;4976352;28;20455;-83
2022/11/21 01:29:40;;;;;;;385.63;369.23;;;6.60;99.90;;;;;;4977387;28;20486;-83
2022/11/21 01:32:07;;;;;;;411.03;394.40;;;6.60;99.90;;;;;;4976892;28;20461;-84
2022/11/21 01:34:33;;;;;;;329.83;316.07;;;6.70;99.90;;;;;;4976601;28;20485;-82
2022/11/21 01:37:01;;;;;;;409.50;392.40;;;6.70;99.90;;;;;;4977223;28;20451;-83
2022/11/21 01:39:28;;;;;;;427.33;410.87;;;6.60;99.90;;;;;;4976799;28;20467;-82
2022/11/21 01:41:55;;;;;;;419.50;402.23;;;6.60;99.90;;;;;;4976792;28;20482;-84
2022/11/21 01:44:23;;;;;;;465.50;444.90;;;6.60;99.90;;;;;;4977170;28;20459;-83
2022/11/21 01:46:51;;;;;;;475.67;454.57;;;6.50;99.90;;;;;;4976826;28;20804;-83
2022/11/21 01:49:21;;;;;;;499.60;476.20;;;6.50;99.90;;;;;;4976928;28;20471;-83
2022/11/21 01:51:53;;;;;;;521.40;496.00;;;6.40;99.90;;;;;;4976815;28;20458;-83
2022/11/21 01:54:26;;;;;;;526.00;499.27;;;6.50;99.90;;;;;;4977436;28;20822;-84
2022/11/21 01:56:59;;;;;;;533.20;507.23;;;6.60;99.90;;;;;;4976505;28;20455;-83
2022/11/21 01:59:29;;;;;;;536.47;509.47;;;6.40;99.90;;;;;;4976116;28;20485;-82
2022/11/21 02:01:57;;;;;;;555.93;527.33;;;6.40;99.90;;;;;;4975643;28;20467;-82
2022/11/21 02:04:28;;;;;;;528.00;502.70;;;6.50;99.90;;;;;;4974716;28;20455;-82
2022/11/21 02:06:55;;;;;;;525.07;498.07;;;6.50;99.90;;;;;;4979394;28;20458;-83
2022/11/21 02:09:24;;;;;;;510.90;486.80;;;6.50;99.90;;;;;;4979081;28;20844;-82
2022/11/21 02:11:55;;;;;;;530.33;503.63;;;6.60;99.90;;;;;;4978787;28;20461;-83
2022/11/21 02:14:22;;;;;;;523.70;499.57;;;6.50;99.90;;;;;;4979378;28;20451;-82
2022/11/21 02:16:49;;;;;;;517.60;493.70;;;6.40;99.90;;;;;;4979328;28;20454;-82
2022/11/21 02:19:26;;;;;;;497.67;474.57;;;6.50;99.90;;;;;;4978866;28;20478;-83
2022/11/21 02:22:00;;;;;;;522.53;497.60;;;6.40;99.90;;;;;;4978698;28;20486;-82
2022/11/21 02:24:35;;;;;;;509.63;486.20;;;6.50;99.90;;;;;;4978719;28;20949;-82
2022/11/21 02:27:04;;;;;;;517.87;494.17;;;6.50;99.90;;;;;;4979972;28;20442;-83
2022/11/21 02:29:30;;;;;;;510.40;487.40;;;6.50;99.90;;;;;;4978552;28;20486;-82
2022/11/21 02:32:00;;;;;;;500.93;478.37;;;6.40;99.90;;;;;;4978755;28;20450;-82
2022/11/21 02:34:26;;;;;;;512.30;487.30;;;6.40;99.90;;;;;;4978934;28;20958;-82
2022/11/21 02:36:53;;;;;;;537.40;512.07;;;6.30;99.90;;;;;;4978388;28;20462;-82
2022/11/21 02:39:23;;;;;;;525.50;500.43;;;6.30;99.90;;;;;;4978138;28;20474;-83
2022/11/21 02:41:58;;;;;;;523.17;498.17;;;6.30;99.90;;;;;;4977342;28;20480;-82
2022/11/21 02:44:32;;;;;;;519.47;495.97;;;6.30;99.90;;;;;;4977433;28;20450;-83
2022/11/21 02:46:59;;;;;;;529.80;504.40;;;6.40;99.90;;;;;;4977637;28;20458;-84
2022/11/21 02:49:34;;;;;;;540.67;513.57;;;6.40;99.90;;;;;;4977054;28;20498;-82
2022/11/21 02:52:01;;;;;;;557.70;529.77;;;6.40;99.90;;;;;;4978105;28;20450;-84
2022/11/21 02:54:28;;;;;;;573.23;544.70;;;6.30;99.90;;;;;;4978239;28;20450;-83
2022/11/21 02:56:55;;;;;;;575.97;547.40;;;6.20;99.90;;;;;;4978954;28;20455;-82
2022/11/21 02:59:22;;;;;;;550.67;523.67;;;6.30;99.90;;;;;;4978539;28;20479;-82
2022/11/21 03:01:50;;;;;;;535.47;510.23;;;6.40;99.90;;;;;;4977688;28;20486;-83
2022/11/21 03:04:17;;;;;;;538.10;512.40;;;6.30;99.90;;;;;;4978242;28;20466;-82
2022/11/21 03:06:43;;;;;;;563.33;534.53;;;6.30;99.90;;;;;;4978426;28;20455;-82
2022/11/21 03:09:11;;;;;;;536.23;509.80;;;6.30;99.90;;;;;;4977410;28;20471;-84
2022/11/21 03:11:38;;;;;;;550.57;524.57;;;6.30;99.90;;;;;;4976621;28;20505;-84
2022/11/21 03:14:04;;;;;;;524.70;501.63;;;6.30;99.90;;;;;;4977725;28;20454;-83
2022/11/21 03:16:31;;;;;;;559.97;533.57;;;6.30;99.90;;;;;;4978401;28;20457;-82
2022/11/21 03:18:59;;;;;;;560.67;534.87;;;6.30;99.90;;;;;;4979160;28;20989;-83
2022/11/21 03:21:26;;;;;;;553.40;527.80;;;6.40;99.90;;;;;;4978427;28;20474;-83
2022/11/21 03:23:53;;;;;;;535.77;511.30;;;6.30;99.90;;;;;;4978783;28;20455;-83
2022/11/21 03:26:20;;;;;;;533.03;509.70;;;6.30;99.90;;;;;;4978740;28;20451;-83
2022/11/21 03:28:46;;;;;;;504.90;481.80;;;6.30;99.90;;;;;;4978753;28;20489;-83
2022/11/21 03:31:13;;;;;;;540.00;515.10;;;6.20;99.90;;;;;;4977138;28;20451;-83
2022/11/21 03:33:40;;;;;;;555.33;529.70;;;6.30;99.90;;;;;;4967826;28;20977;-82
2022/11/21 03:36:08;;;;;;;565.33;538.57;;;6.30;99.90;;;;;;4977894;28;20454;-83
2022/11/21 03:38:35;;;;;;;562.20;535.30;;;6.30;99.90;;;;;;4977743;28;20470;-82
2022/11/21 03:41:04;;;;;;;575.43;547.57;;;6.40;99.90;;;;;;4978104;28;20482;-83
2022/11/21 03:43:31;;;;;;;566.40;538.23;;;6.20;99.90;;;;;;4989049;28;20478;-82
2022/11/21 03:45:58;;;;;;;553.20;527.60;;;6.30;99.90;;;;;;4978282;28;20459;-82
2022/11/21 03:48:24;;;;;;;518.60;494.90;;;6.30;99.90;;;;;;4978235;28;20479;-82
2022/11/21 03:50:51;;;;;;;523.67;499.17;;;6.20;99.90;;;;;;4977596;28;20933;-82
2022/11/21 03:53:19;;;;;;;523.77;498.67;;;6.20;99.90;;;;;;4977839;28;20455;-83
2022/11/21 03:55:46;;;;;;;512.97;488.97;;;6.20;99.90;;;;;;4978131;28;20470;-84
2022/11/21 03:58:12;;;;;;;532.70;507.60;;;6.20;99.90;;;;;;4977986;28;20841;-82
2022/11/21 04:00:39;;;;;;;544.10;518.33;;;6.20;99.90;;;;;;4977160;28;20455;-82
2022/11/21 04:03:06;;;;;;;564.70;538.00;;;6.10;99.90;;;;;;4979173;28;20451;-83
2022/11/21 04:05:32;;;;;;;589.87;559.37;;;6.20;99.90;;;;;;4978616;28;20482;-82
2022/11/21 04:07:59;;;;;;;584.70;555.00;;;6.10;99.90;;;;;;4977560;28;20475;-83
2022/11/21 04:10:27;;;;;;;592.50;562.30;;;6.20;99.90;;;;;;4976196;28;20455;-82
2022/11/21 04:12:54;;;;;;;596.57;566.27;;;6.10;99.90;;;;;;4975195;28;20447;-83
2022/11/21 04:15:20;;;;;;;568.50;541.50;;;6.10;99.90;;;;;;4977758;28;20459;-83
2022/11/21 04:17:47;;;;;;;575.70;548.27;;;6.10;99.90;;;;;;4976926;28;20451;-82
2022/11/21 04:20:15;;;;;;;594.50;565.30;;;6.00;99.90;;;;;;4975462;28;20461;-82
2022/11/21 04:22:42;;;;;;;617.23;585.10;;;6.00;99.90;;;;;;4976493;28;20474;-82
2022/11/21 04:25:09;;;;;;;631.10;598.67;;;5.90;99.90;;;;;;4976892;28;20463;-82
2022/11/21 04:27:37;;;;;;;626.13;593.23;;;5.90;99.90;;;;;;4975635;28;20467;-82
2022/11/21 04:30:05;;;;;;;630.00;596.27;;;5.90;99.90;;;;;;4975634;28;20824;-83
2022/11/21 04:32:32;;;;;;;625.83;592.97;;;5.90;99.90;;;;;;4964566;28;20961;-82
2022/11/21 04:34:58;;;;;;;644.13;609.27;;;6.00;99.90;;;;;;4976138;28;20458;-81
2022/11/21 04:37:25;;;;;;;640.97;606.17;;;6.00;99.90;;;;;;4976122;28;20462;-83
2022/11/21 04:39:52;;;;;;;644.73;608.97;;;6.10;99.90;;;;;;4975236;28;20607;-81
2022/11/21 04:42:18;;;;;;;646.90;611.77;;;6.00;99.90;;;;;;4975921;28;20478;-81
2022/11/21 04:44:46;;;;;;;628.53;594.33;;;6.10;99.90;;;;;;4975873;28;20455;-82
2022/11/21 04:47:13;;;;;;;602.90;571.90;;;6.20;99.90;;;;;;4976538;28;20451;-81
2022/11/21 04:49:40;;;;;;;596.33;564.87;;;6.10;99.90;;;;;;4976196;28;20475;-83
2022/11/21 04:52:07;;;;;;;624.73;591.10;;;6.20;99.90;;;;;;4975326;28;20463;-82
2022/11/21 04:54:33;;;;;;;623.80;590.10;;;6.20;99.90;;;;;;4976981;28;20466;-83
2022/11/21 04:57:01;;;;;;;639.53;604.83;;;6.20;99.90;;;;;;4976811;28;20455;-82
2022/11/21 04:59:28;;;;;;;627.40;594.60;;;6.20;99.90;;;;;;4976164;28;20479;-81
2022/11/21 05:01:56;;;;;;;642.30;606.60;;;6.30;99.90;;;;;;4973910;28;20474;-81
2022/11/21 05:04:22;;;;;;;654.83;617.70;;;6.20;99.90;;;;;;4974129;28;20451;-81
2022/11/21 05:06:49;;;;;;;665.27;628.17;;;6.30;99.90;;;;;;4974703;28;20481;-82
2022/11/21 05:09:16;;;;;;;670.60;631.90;;;6.30;99.90;;;;;;4974600;28;21012;-81
2022/11/21 05:14:27;;;;;;;682.27;642.67;;;6.40;99.90;;;;;;4974695;28;20441;-81
2022/11/21 05:16:53;;;;;;;683.57;643.47;;;6.30;99.90;;;;;;4974616;28;20454;-81
2022/11/21 05:19:21;;;;;;;693.73;651.10;;;6.20;99.90;;;;;;4974188;28;20849;-81
2022/11/21 05:21:49;;;;;;;692.70;650.50;;;6.20;99.90;;;;;;4970936;28;20471;-83
2022/11/21 05:24:16;;;;;;;699.67;656.80;;;6.20;99.90;;;;;;4974177;28;20450;-81
2022/11/21 05:26:42;;;;;;;699.30;656.23;;;6.20;99.90;;;;;;4975675;28;20834;-82
2022/11/21 05:29:09;;;;;;;698.37;655.27;;;6.30;99.90;;;;;;4974797;28;20482;-81
2022/11/21 05:31:36;;;;;;;693.30;650.10;;;6.30;99.90;;;;;;4975967;28;20949;-81
2022/11/21 05:34:02;;;;;;;695.03;652.00;;;6.20;99.90;;;;;;4976682;28;20462;-84
2022/11/21 05:36:31;;;;;;;698.70;656.70;;;6.30;99.90;;;;;;4975413;28;20834;-83
2022/11/21 05:38:57;;;;;;;693.87;650.20;;;6.40;99.90;;;;;;4975478;28;20494;-82
2022/11/21 05:41:24;;;;;;;698.60;654.30;;;6.30;99.90;;;;;;4978357;28;20466;-82
2022/11/21 05:43:50;;;;;;;697.20;654.20;;;6.30;99.90;;;;;;4978624;28;20458;-82
2022/11/21 05:46:19;;;;;;;700.83;658.07;;;6.30;99.90;;;;;;4979356;28;20841;-81
2022/11/21 05:48:47;;;;;;;695.77;652.77;;;6.30;99.90;;;;;;4978497;28;20219;-83
2022/11/21 05:51:14;;;;;;;687.83;645.07;;;6.40;99.90;;;;;;4977148;28;20462;-81
2022/11/21 05:53:43;;;;;;;683.50;641.10;;;6.30;99.90;;;;;;4979208;28;20481;-81
2022/11/21 05:56:11;;;;;;;692.33;649.83;;;6.30;99.90;;;;;;4978883;28;20474;-82
2022/11/21 05:58:38;;;;;;;688.70;646.47;;;6.40;99.90;;;;;;4978518;28;20474;-81
2022/11/21 06:01:06;;;;;;;690.37;647.87;;;6.40;99.90;;;;;;4978470;28;20459;-82
2022/11/21 06:03:34;;;;;;;690.43;648.47;;;6.50;99.90;;;;;;4979343;28;20474;-81
2022/11/21 06:06:06;;;;;;;686.67;644.20;;;6.40;99.90;;;;;;4978525;28;20483;-82
2022/11/21 06:08:34;;;;;;;686.47;644.67;;;6.40;99.90;;;;;;4979352;28;20490;-84
2022/11/21 06:11:03;;;;;;;681.13;639.83;;;6.40;99.90;;;;;;4980825;28;20454;-85
2022/11/21 06:13:29;;;;;;;671.93;633.03;;;6.40;99.90;;;;;;4978021;28;20834;-80
2022/11/21 06:16:00;;;;;;;667.13;628.57;;;6.30;99.90;;;;;;4977909;28;20455;-80
2022/11/21 06:18:32;;;;;;;683.00;642.00;;;6.40;99.90;;;;;;4978559;28;20478;-80
2022/11/21 06:21:03;;;;;;;681.90;641.10;;;6.50;99.90;;;;;;4977974;28;20458;-80
2022/11/21 06:23:29;;;;;;;682.60;642.00;;;6.40;99.90;;;;;;4977868;28;20484;-82
2022/11/21 06:25:57;;;;;;;671.87;633.20;;;6.40;99.90;;;;;;4978056;28;20609;-80
2022/11/21 06:28:26;;;;;;;673.13;633.67;;;6.40;99.90;;;;;;4978562;28;20475;-80
2022/11/21 06:30:53;;;;;;;659.77;622.00;;;6.50;99.90;;;;;;4979221;28;20834;-80
2022/11/21 06:33:20;;;;;;;649.37;613.27;;;6.50;99.90;;;;;;4979513;28;20958;-80
2022/11/21 06:35:47;;;;;;;654.27;617.57;;;6.40;99.90;;;;;;4978216;28;20451;-80
2022/11/21 06:38:17;;;;;;;661.00;623.30;;;6.40;99.90;;;;;;4977901;28;20483;-80
2022/11/21 06:40:44;;;;;;;659.47;622.67;;;6.40;99.90;;;;;;4976997;28;20506;-81
2022/11/21 06:43:11;;;;;;;656.67;620.23;;;6.40;99.90;;;;;;4978033;28;20486;-81
2022/11/21 06:45:39;;;;;;;645.93;610.67;;;6.40;99.90;;;;;;4976973;28;20458;-81
2022/11/21 06:48:06;;;;;;;644.87;609.30;;;6.40;99.90;;;;;;4976968;28;20475;-81
2022/11/21 06:50:33;;;;;;;619.07;586.77;;;6.50;99.90;;;;;;4976851;28;20462;-79
2022/11/21 06:53:00;;;;;;;636.77;604.00;;;6.40;99.90;;;;;;4976798;28;20467;-81
2022/11/21 06:55:28;;;;;;;637.10;602.60;;;6.40;99.90;;;;;;4977181;28;20459;-80
2022/11/21 06:57:58;;;;;;;625.83;593.03;;;6.40;99.90;;;;;;4977212;28;20475;-79
2022/11/21 07:00:26;;;;;;;612.60;581.30;;;6.40;99.90;;;;;;4976041;28;20477;-79
2022/11/21 07:02:54;;;;;;;598.97;569.10;;;6.40;99.90;;;;;;4976208;28;20565;-79
2022/11/21 07:05:21;;;;;;;592.57;563.60;;;6.40;99.90;;;;;;4975978;28;20451;-80
2022/11/21 07:07:48;;;;;;;578.13;550.30;;;6.30;99.90;;;;;;4976769;28;20455;-81
2022/11/21 07:10:15;;;;;;;586.93;558.80;;;6.30;99.90;;;;;;4977360;28;20454;-80
2022/11/21 07:15:25;;;;;;;594.77;565.83;;;6.20;99.90;;;;;;4975488;28;20434;-80
2022/11/21 07:17:54;;;;;;;604.77;574.07;;;6.20;99.90;;;;;;4975682;28;20853;-82
2022/11/21 07:20:21;;;;;;;606.33;575.23;;;6.30;99.90;;;;;;4976242;28;20462;-79
2022/11/21 07:22:47;;;;;;;624.90;593.60;;;6.20;99.90;;;;;;4976582;28;20463;-80
2022/11/21 07:25:14;;;;;;;629.33;596.57;;;6.30;99.90;;;;;;4976127;28;20450;-80
2022/11/21 07:27:41;;;;;;;640.57;606.43;;;6.20;99.90;;;;;;4975472;28;20462;-80
2022/11/21 07:30:09;;;;;;;639.47;606.10;;;6.20;99.90;;;;;;4976200;28;20848;-80
2022/11/21 07:32:36;;;;;;;646.97;611.17;;;6.30;99.90;;;;;;4975072;28;20451;-80
2022/11/21 07:35:04;;;;;;;655.50;619.07;;;6.30;99.90;;;;;;4977092;28;20455;-79
2022/11/21 07:37:31;;;;;;;649.20;613.37;;;6.20;99.90;;;;;;4976260;28;20486;-79
2022/11/21 07:39:58;;;;;;;641.10;606.43;;;6.20;99.90;;;;;;4975834;28;20497;-80
2022/11/21 07:42:24;;;;;;;633.60;599.77;;;6.20;99.90;;;;;;4975118;28;20478;-79
2022/11/21 07:44:51;;;;;;;634.53;600.73;;;6.30;99.90;;;;;;4976653;28;20455;-82
2022/11/21 07:47:18;;;;;;;629.27;595.67;;;6.30;99.90;;;;;;4979736;28;20451;-83
2022/11/21 07:49:44;;;;;;;630.93;597.30;;;6.40;99.90;;;;;;4981398;28;20470;-83
2022/11/21 07:52:13;;;;;;;623.40;591.70;;;6.30;99.90;;;;;;4984004;28;20459;-83
2022/11/21 07:54:39;;;;;;;631.43;598.67;;;6.30;99.90;;;;;;4984660;28;20463;-83
2022/11/21 07:57:06;;;;;;;619.73;588.93;;;6.40;99.90;;;;;;4984567;28;20455;-83
2022/11/21 07:59:33;;;;;;;605.73;576.10;;;6.20;99.90;;;;;;4983516;28;20475;-83
2022/11/21 08:02:00;;;;;;;603.90;574.30;;;6.40;99.90;;;;;;4984016;28;20451;-84
2022/11/21 08:04:28;;;;;;;588.77;560.17;;;6.40;99.90;;;;;;4985399;28;20834;-83
2022/11/21 08:06:55;;;;;;;572.20;544.57;;;6.50;99.90;;;;;;4985523;28;20546;-83
2022/11/21 08:09:27;;;;;;;570.07;542.00;;;6.40;99.90;;;;;;4986341;28;20481;-86
2022/11/21 08:11:54;;;;;;;576.43;548.23;;;6.50;99.90;;;;;;4985425;28;20490;-84
2022/11/21 08:14:21;;;;;;;571.97;544.67;;;6.50;99.90;;;;;;4976894;28;20508;-83
2022/11/21 08:16:47;;;;;;;552.37;526.77;;;6.60;99.90;;;;;;4986155;28;20479;-86
2022/11/21 08:19:14;;;;;;;539.10;514.37;;;6.60;99.90;;;;;;4985222;28;20510;-84
2022/11/21 08:21:41;;;;;;;514.07;491.30;;;6.50;99.90;;;;;;4984411;28;20462;-82
2022/11/21 08:24:12;;;;;;;516.87;494.07;;;6.60;99.90;;;;;;4984626;28;20475;-85
2022/11/21 08:26:41;;;;;;;523.33;500.43;;;6.50;99.90;;;;;;4984783;28;20459;-84
2022/11/21 08:29:07;;;;;;;488.00;466.70;;;6.60;99.90;;;;;;4984188;28;20486;-83
2022/11/21 08:31:34;;;;;;;454.20;435.10;;;6.60;99.90;;;;;;4983394;28;20458;-85
2022/11/21 08:34:01;;;;;;;443.17;424.43;;;6.60;99.90;;;;;;4981978;28;20450;-83
2022/11/21 08:36:28;;;;;;;448.90;428.53;;;6.70;99.90;;;;;;4979160;28;20461;-83
2022/11/21 08:38:55;;;;;;;421.20;403.40;;;6.90;99.90;;;;;;4980357;28;20471;-82
2022/11/21 08:44:07;;;;;;;368.27;352.80;;;6.80;99.90;;;;;;4980743;28;20999;-82
2022/11/21 08:46:36;;;;;;;350.10;335.27;;;6.90;99.90;;;;;;4979860;28;20549;-82
2022/11/21 08:49:03;;;;;;;341.67;327.10;;;6.90;99.90;;;;;;4980025;28;20510;-82
2022/11/21 08:51:29;;;;;;;320.53;306.63;;;7.00;99.90;;;;;;4979851;28;20451;-82
2022/11/21 08:53:56;;;;;;;342.40;327.30;;;7.00;99.90;;;;;;4979418;28;20536;-82
2022/11/21 08:56:23;;;;;;;303.53;291.23;;;7.10;99.90;;;;;;4980266;28;20550;-82
2022/11/21 08:58:50;;;;;;;245.17;235.17;;;7.20;99.90;;;;;;4979327;28;20482;-82
2022/11/21 09:01:18;;;;;;;254.20;244.20;;;7.20;99.90;;;;;;4979540;28;20928;-80
2022/11/21 09:03:45;;;;;;;300.93;288.93;;;7.20;99.90;;;;;;4979312;28;20482;-82
2022/11/21 09:06:12;;;;;;;309.90;296.80;;;7.20;99.90;;;;;;4980853;28;20463;-83
2022/11/21 09:08:39;;;;;;;314.70;301.60;;;7.30;99.90;;;;;;4980934;28;20562;-83
2022/11/21 09:11:06;;;;;;;327.27;313.83;;;7.30;99.90;;;;;;4980546;28;20457;-83
2022/11/21 09:13:34;;;;;;;301.60;289.00;;;7.50;99.90;;;;;;4980478;28;20462;-83
2022/11/21 09:18:47;;;;;;;280.07;268.80;;;7.70;99.90;;;;;;4980409;28;21004;-83
2022/11/21 09:21:15;;;;;;;263.03;252.13;;;7.80;99.90;;;;;;4979476;28;20465;-82
2022/11/21 09:23:42;;;;;;;176.67;169.07;;;7.90;99.90;;;;;;4979732;28;20549;-81
2022/11/21 09:26:09;;;;;;;136.23;130.43;;;7.70;99.90;;;;;;4979444;28;20462;-84
2022/11/21 09:28:36;;;;;;;161.67;154.60;;;7.60;99.90;;;;;;4979570;28;20479;-83
2022/11/21 09:31:03;;;;;;;139.57;132.93;;;7.60;99.90;;;;;;4979503;28;20469;-83
2022/11/21 09:33:30;;;;;;;148.73;141.83;;;7.50;99.90;;;;;;4979707;28;20542;-81
2022/11/21 09:35:59;;;;;;;177.30;170.37;;;7.40;99.90;;;;;;4979324;28;20462;-82
2022/11/21 09:38:28;;;;;;;228.30;219.80;;;7.30;99.90;;;;;;4979653;28;20478;-83
2022/11/21 09:41:50;;;;;;;260.23;250.03;;;7.30;99.90;;;;;;4979365;28;20486;-83
2022/11/21 09:44:00;;;;;;;296.43;285.10;;;7.30;99.90;;;;;;4978801;28;20475;-82
2022/11/21 09:46:32;;;;;;;315.47;303.07;;;7.10;99.90;;;;;;4979306;28;20470;-82
2022/11/21 09:49:02;;;;;;;351.03;337.30;;;7.20;99.90;;;;;;4978774;28;20478;-83
2022/11/21 09:51:31;;;;;;;384.40;369.50;;;7.00;99.90;;;;;;4978605;28;20466;-83
2022/11/21 09:54:01;;;;;;;418.80;401.60;;;7.00;99.90;;;;;;4979708;28;20477;-81
2022/11/21 09:56:31;;;;;;;392.00;375.80;;;7.20;99.90;;;;;;4978803;28;20454;-82
2022/11/21 09:59:11;;;;;;;356.97;343.03;;;7.10;99.90;;;;;;4978991;28;20502;-82
2022/11/21 10:01:38;;;;;;;326.13;313.03;;;7.00;99.90;;;;;;4979089;28;21020;-82
2022/11/21 10:04:05;;;;;;;290.23;279.53;;;7.00;99.90;;;;;;4979241;28;20478;-82
2022/11/21 10:06:38;;;;;;;320.87;308.67;;;6.80;99.90;;;;;;4978873;28;20550;-82
2022/11/21 10:09:13;;;;;;;336.37;323.40;;;6.90;99.90;;;;;;4979315;28;20474;-83
2022/11/21 10:14:49;;;;;;;323.97;311.10;;;6.90;99.90;;;;;;4979284;28;20443;-83
2022/11/21 10:17:25;;;;;;;328.00;315.23;;;7.10;99.90;;;;;;4979754;28;20461;-83
2022/11/21 10:20:18;;;;;;;337.07;322.80;;;7.10;99.90;;;;;;4978983;28;20862;-83
2022/11/21 10:23:08;;;;;;;296.87;285.87;;;7.00;99.90;;;;;;4979036;28;20558;-83
2022/11/21 10:25:37;;;;;;;301.87;290.23;;;7.10;99.90;;;;;;4978947;28;20983;-83
2022/11/21 10:28:10;;;;;;;318.93;307.07;;;7.00;99.90;;;;;;4981599;28;20478;-83
2022/11/21 10:30:41;;;;;;;282.63;272.13;;;7.10;99.90;;;;;;4982301;28;20454;-82
2022/11/21 10:33:15;;;;;;;232.27;223.47;;;7.00;99.90;;;;;;4983178;28;20450;-82
2022/11/21 10:35:45;;;;;;;235.37;227.17;;;7.00;99.90;;;;;;4982811;28;20459;-82
2022/11/21 10:38:21;;;;;;;223.77;215.50;;;7.00;99.90;;;;;;4983260;28;20839;-83
2022/11/21 10:40:51;;;;;;;191.50;184.60;;;7.20;99.90;;;;;;4983150;28;20458;-82
2022/11/21 10:46:12;;;;;;;196.63;189.17;;;7.30;99.90;;;;;;4958234;28;20506;-83
2022/11/21 10:48:39;;;;;;;197.80;190.00;;;7.30;99.90;;;;;;4982759;28;20482;-83
2022/11/21 10:51:20;;;;;;;221.87;214.27;;;7.30;99.90;;;;;;4982542;28;20459;-83
2022/11/21 10:56:46;;;;;;;215.07;207.47;;;7.60;99.90;;;;;;4983096;28;20466;-83
2022/11/21 10:59:23;;;;;;;205.03;197.57;;;7.50;99.90;;;;;;4982828;28;20466;-83
2022/11/21 11:01:56;;;;;;;181.63;175.07;;;7.60;99.90;;;;;;4982601;28;20839;-82
2022/11/21 11:04:22;;;;;;;165.70;159.83;;;7.70;99.90;;;;;;4982365;28;20487;-83
2022/11/21 11:06:49;;;;;;;129.97;124.33;;;7.80;99.90;;;;;;4982722;28;20455;-83
2022/11/21 11:09:31;;;;;;;103.37;98.67;;;7.90;99.90;;;;;;4982373;28;20571;-81
2022/11/21 11:15:23;;;;;;;35.80;33.67;;;8.70;99.90;;;;;;4972745;28;20474;-83
2022/11/21 11:17:52;;;;;;;22.80;8.17;;;8.90;99.90;;;;;;4980100;28;20538;-83
2022/11/21 11:20:40;;;;;;;5.73;3.60;;;9.30;99.90;;;;;;4980815;28;20458;-82
2022/11/21 11:23:26;;;;;;;7.90;3.57;;;10.00;99.90;;;;;;4981992;28;20489;-83
2022/11/21 11:25:56;;;;;;;5.43;2.70;;;10.60;99.90;;;;;;4981193;28;20458;-84
2022/11/21 11:28:24;;;;;;;5.57;3.00;;;11.30;99.90;;;;;;4981517;28;20984;-84
2022/11/21 11:30:53;;;;;;;10.83;2.73;;;11.40;99.90;;;;;;4981991;28;20464;-83
2022/11/21 11:33:36;;;;;;;5.90;2.50;;;11.90;99.90;;;;;;4982348;28;20463;-83
2022/11/21 11:36:15;;;;;;;6.33;1.90;;;12.00;99.90;;;;;;4981833;28;20461;-83
2022/11/21 11:38:47;;;;;;;8.43;2.00;;;12.20;99.90;;;;;;4981316;28;20489;-84
2022/11/21 11:41:27;;;;;;;5.00;1.50;;;12.50;99.90;;;;;;4981397;28;20462;-83
2022/11/21 11:52:41;;;;;;;7.03;1.60;;;13.10;99.90;;;;;;4981023;28;20566;-83
2022/11/21 11:55:16;;;;;;;8.47;1.70;;;13.60;99.90;;;;;;4981665;28;20455;-84
2022/11/21 11:57:47;;;;;;;5.10;1.20;;;13.00;99.90;;;;;;4981574;28;20462;-83
2022/11/21 12:00:27;;;;;;;5.47;1.90;;;12.70;99.90;;;;;;4981343;28;20998;-83
2022/11/21 12:03:00;;;;;;;7.53;1.97;;;12.60;99.90;;;;;;4981745;28;20442;-83
2022/11/21 12:05:29;;;;;;;8.27;1.60;;;12.30;99.90;;;;;;4981321;28;20463;-83
2022/11/21 12:08:08;;;;;;;5.93;1.27;;;12.20;99.90;;;;;;4980938;28;21018;-83
2022/11/21 12:13:27;;;;;;;4.57;1.33;;;11.20;99.90;;;;;;4979286;28;20495;-83
2022/11/21 12:15:57;;;;;;;6.50;1.43;;;11.30;99.90;;;;;;4980908;28;20460;-83
2022/11/21 12:18:33;;;;;;;6.63;1.53;;;11.20;99.90;;;;;;4980721;28;20479;-83
2022/11/21 12:21:05;;;;;;;5.50;1.20;;;12.00;99.90;;;;;;4981099;28;20462;-83
2022/11/21 12:23:37;;;;;;;6.10;1.60;;;12.30;99.90;;;;;;4980615;28;20475;-85
2022/11/21 12:26:33;;;;;;;5.03;1.50;;;12.30;99.90;;;;;;4981171;28;20442;-83
2022/11/21 12:29:13;;;;;;;5.43;1.40;;;11.90;99.90;;;;;;4980350;28;20483;-84
2022/11/21 12:31:53;;;;;;;6.23;1.80;;;11.40;99.90;;;;;;4980606;28;20458;-83
2022/11/21 12:34:34;;;;;;;8.87;1.60;;;11.00;99.90;;;;;;4980582;28;20477;-83
2022/11/21 12:37:08;;;;;;;6.07;1.60;;;11.00;99.90;;;;;;4981190;28;20452;-83
2022/11/21 12:39:55;;;;;;;7.00;1.40;;;10.90;99.90;;;;;;4980084;28;20482;-85
2022/11/21 12:45:36;;;;;;;6.17;1.30;;;10.90;99.90;;;;;;4980288;28;20562;-83
2022/11/21 12:54:44;;;;;;;5.33;1.47;;;11.00;99.90;;;;;;4980252;28;20497;-83
2022/11/21 12:57:12;;;;;;;5.87;1.27;;;11.20;99.90;;;;;;4980663;28;20451;-83
2022/11/21 12:59:52;;;;;;;15.13;1.30;;;11.20;99.90;;;;;;4979672;28;20486;-84
2022/11/21 13:02:47;;;;;;;6.13;2.20;;;11.20;99.90;;;;;;4979873;28;20459;-83
2022/11/21 13:05:21;;;;;;;4.10;1.10;;;11.00;99.90;;;;;;4980249;28;20836;-84
2022/11/21 13:07:49;;;;;;;5.00;1.33;;;10.70;99.90;;;;;;4980484;28;20810;-83
2022/11/21 13:10:17;;;;;;;8.23;1.77;;;10.50;99.90;;;;;;4980140;28;20462;-83
2022/11/21 13:12:48;;;;;;;7.50;1.60;;;10.30;99.90;;;;;;4980213;28;20899;-83
2022/11/21 13:15:21;;;;;;;6.60;1.90;;;10.10;99.90;;;;;;4980075;28;20558;-83